| time (UTC) | temp C | wind direction | speed KPH | gust KPH | rain 1hr cm | rain 24hr cm | rain mn cm | humidity % | barometer mb |
| 20260506051037 | 7 | 304 | 1.6 | 3.2 | 0.00 | 0.74 | 0.00 | 94 | 1009.3 |
| 20260506050536 | 7 | 0 | 0.0 | 1.6 | 0.00 | 0.74 | 0.00 | 94 | 1009.0 |
| 20260506045037 | 7 | 2 | 0.0 | 3.2 | 0.00 | 0.74 | 0.00 | 94 | 1008.9 |
| 20260506044546 | 7 | 0 | 0.0 | 1.6 | 0.00 | 0.74 | 0.00 | 94 | 1009.1 |
| 20260506044041 | 7 | 337 | 0.0 | 1.6 | 0.00 | 0.74 | 0.00 | 94 | 1008.8 |
| 20260506043537 | 7 | 337 | 0.0 | 3.2 | 0.00 | 0.74 | 0.00 | 94 | 1009.0 |
| 20260506043045 | 7 | 337 | 0.0 | 3.2 | 0.00 | 0.74 | 0.00 | 94 | 1009.0 |
| 20260506042538 | 7 | 340 | 0.0 | 3.2 | 0.00 | 0.74 | 0.00 | 94 | 1009.1 |
| 20260506042037 | 7 | 0 | 0.0 | 1.6 | 0.00 | 0.74 | 0.00 | 94 | 1009.2 |
| 20260506041602 | 7 | 0 | 0.0 | 1.6 | 0.00 | 0.74 | 0.00 | 94 | 1009.1 |
| 20260506041037 | 7 | 330 | 0.0 | 1.6 | 0.03 | 0.74 | 0.00 | 94 | 1009.0 |
| 20260506040536 | 7 | 330 | 0.0 | 3.2 | 0.03 | 0.74 | 0.00 | 94 | 1008.9 |
| 20260506040051 | 7 | 0 | 0.0 | 4.8 | 0.03 | 0.74 | 0.00 | 94 | 1009.1 |
| 20260506035536 | 7 | 353 | 1.6 | 4.8 | 0.03 | 0.74 | 0.74 | 93 | 1009.1 |
| 20260506035037 | 7 | 323 | 1.6 | 4.8 | 0.03 | 0.74 | 0.74 | 93 | 1009.3 |
| 20260506034548 | 8 | 356 | 0.0 | 3.2 | 0.03 | 0.74 | 0.74 | 94 | 1009.3 |
| 20260506034041 | 7 | 0 | 0.0 | 3.2 | 0.03 | 0.74 | 0.74 | 94 | 1009.3 |
| 20260506033536 | 7 | 0 | 0.0 | 3.2 | 0.03 | 0.74 | 0.74 | 94 | 1009.3 |
| 20260506033048 | 7 | 0 | 0.0 | 1.6 | 0.03 | 0.74 | 0.74 | 94 | 1009.4 |
| 20260506032536 | 7 | 0 | 0.0 | 3.2 | 0.03 | 0.74 | 0.74 | 93 | 1009.6 |
| 20260506032038 | 7 | 0 | 0.0 | 3.2 | 0.03 | 0.74 | 0.74 | 93 | 1009.7 |
| 20260506031551 | 7 | 274 | 1.6 | 3.2 | 0.03 | 0.74 | 0.74 | 94 | 1009.7 |
| 20260506031037 | 7 | 53 | 0.0 | 3.2 | 0.00 | 0.71 | 0.71 | 94 | 1009.5 |
| 20260506030539 | 7 | 48 | 1.6 | 3.2 | 0.00 | 0.71 | 0.71 | 94 | 1009.4 |
| 20260506030049 | 7 | 0 | 0.0 | 4.8 | 0.00 | 0.71 | 0.71 | 94 | 1009.6 |
| 20260506025536 | 7 | 42 | 0.0 | 4.8 | 0.00 | 0.71 | 0.71 | 93 | 1009.6 |
| 20260506025036 | 7 | 23 | 0.0 | 4.8 | 0.00 | 0.71 | 0.71 | 93 | 1009.6 |
| 20260506024543 | 7 | 321 | 1.6 | 6.4 | 0.03 | 0.71 | 0.71 | 93 | 1009.5 |
| 20260506024036 | 7 | 319 | 1.6 | 8.0 | 0.05 | 0.71 | 0.71 | 93 | 1009.4 |
| 20260506023536 | 7 | 349 | 1.6 | 8.0 | 0.05 | 0.71 | 0.71 | 93 | 1009.5 |
| 20260506023102 | 7 | 1 | 3.2 | 8.0 | 0.08 | 0.71 | 0.71 | 93 | 1009.6 |
| 20260506022536 | 7 | 326 | 3.2 | 8.0 | 0.08 | 0.71 | 0.71 | 93 | 1009.7 |
| 20260506022036 | 7 | 347 | 1.6 | 3.2 | 0.10 | 0.71 | 0.71 | 93 | 1009.7 |
| 20260506021607 | 7 | 6 | 0.0 | 4.8 | 0.10 | 0.71 | 0.71 | 93 | 1009.7 |
| 20260506021039 | 7 | 10 | 1.6 | 6.4 | 0.10 | 0.71 | 0.71 | 93 | 1009.7 |
| 20260506020536 | 7 | 30 | 3.2 | 9.7 | 0.10 | 0.71 | 0.71 | 93 | 1009.8 |
| 20260506020044 | 7 | 356 | 1.6 | 9.7 | 0.10 | 0.71 | 0.71 | 93 | 1009.7 |
| 20260506015536 | 7 | 334 | 3.2 | 9.7 | 0.10 | 0.71 | 0.71 | 92 | 1009.7 |
| 20260506015038 | 7 | 330 | 3.2 | 8.0 | 0.10 | 0.71 | 0.71 | 92 | 1009.6 |
| 20260506014550 | 7 | 330 | 1.6 | 8.0 | 0.08 | 0.69 | 0.69 | 92 | 1009.7 |
| 20260506014037 | 7 | 26 | 1.6 | 11.3 | 0.05 | 0.66 | 0.66 | 92 | 1009.6 |
| 20260506013538 | 7 | 335 | 3.2 | 11.3 | 0.05 | 0.66 | 0.66 | 91 | 1009.9 |
| 20260506013044 | 7 | 18 | 6.4 | 14.5 | 0.03 | 0.64 | 0.64 | 91 | 1009.5 |
| 20260506012536 | 7 | 41 | 4.8 | 14.5 | 0.03 | 0.64 | 0.64 | 90 | 1009.6 |
| 20260506012036 | 8 | 303 | 3.2 | 14.5 | 0.00 | 0.61 | 0.61 | 90 | 1009.8 |
| 20260506011604 | 8 | 28 | 3.2 | 17.7 | 0.00 | 0.61 | 0.61 | 90 | 1009.3 |
| 20260506011036 | 8 | 9 | 8.0 | 20.9 | 0.00 | 0.61 | 0.61 | 89 | 1009.4 |
| 20260506010536 | 8 | 42 | 9.7 | 24.1 | 0.00 | 0.61 | 0.61 | 89 | 1009.2 |
| 20260506010048 | 8 | 347 | 11.3 | 24.1 | 0.00 | 0.61 | 0.61 | 87 | 1009.4 |
| 20260506005538 | 8 | 49 | 8.0 | 19.3 | 0.03 | 0.61 | 0.61 | 86 | 1009.4 |
| 20260506005035 | 9 | 340 | 6.4 | 19.3 | 0.05 | 0.61 | 0.61 | 85 | 1009.2 |
| 20260506004550 | 10 | 347 | 4.8 | 9.7 | 0.25 | 0.61 | 0.61 | 87 | 1009.0 |
| 20260506004035 | 10 | 41 | 4.8 | 9.7 | 0.25 | 0.61 | 0.61 | 87 | 1008.8 |
| 20260506003536 | 10 | 342 | 3.2 | 12.9 | 0.25 | 0.61 | 0.61 | 86 | 1008.8 |
| 20260506003049 | 10 | 9 | 6.4 | 14.5 | 0.25 | 0.61 | 0.61 | 86 | 1008.6 |
| 20260506002535 | 10 | 350 | 8.0 | 14.5 | 0.25 | 0.61 | 0.61 | 85 | 1008.7 |
| 20260506002035 | 10 | 11 | 4.8 | 20.9 | 0.25 | 0.61 | 0.61 | 85 | 1008.7 |
| 20260506001553 | 11 | 4 | 6.4 | 20.9 | 0.25 | 0.61 | 0.61 | 84 | 1008.6 |
| 20260506001037 | 11 | 32 | 8.0 | 24.1 | 0.25 | 0.61 | 0.61 | 83 | 1008.6 |
| 20260506000537 | 11 | 44 | 6.4 | 24.1 | 0.25 | 0.61 | 0.61 | 84 | 1008.5 |
| 20260506000051 | 11 | 35 | 9.7 | 27.4 | 0.25 | 0.61 | 0.61 | 83 | 1008.0 |
| 20260505235539 | 11 | 9 | 14.5 | 27.4 | 0.23 | 0.58 | 0.58 | 81 | 1007.9 |
| 20260505235036 | 12 | 50 | 11.3 | 30.6 | 0.13 | 0.48 | 0.48 | 74 | 1008.3 |
| 20260505234550 | 14 | 47 | 14.5 | 30.6 | 0.00 | 0.36 | 0.36 | 74 | 1007.6 |
| 20260505234036 | 15 | 13 | 16.1 | 30.6 | 0.00 | 0.36 | 0.36 | 74 | 1007.8 |
| 20260505233535 | 15 | 34 | 8.0 | 27.4 | 0.00 | 0.36 | 0.36 | 75 | 1007.6 |
| 20260505233050 | 15 | 349 | 11.3 | 27.4 | 0.00 | 0.36 | 0.36 | 74 | 1007.3 |
| 20260505232535 | 16 | 28 | 9.7 | 24.1 | 0.00 | 0.36 | 0.36 | 74 | 1007.4 |
| 20260505232036 | 16 | 321 | 9.7 | 25.7 | 0.00 | 0.36 | 0.36 | 73 | 1007.3 |
| 20260505231558 | 16 | 356 | 12.9 | 25.7 | 0.00 | 0.36 | 0.36 | 72 | 1007.4 |
| 20260505231036 | 17 | 23 | 6.4 | 14.5 | 0.00 | 0.36 | 0.36 | 72 | 1007.3 |
| 20260505230536 | 17 | 350 | 1.6 | 11.3 | 0.00 | 0.36 | 0.36 | 73 | 1007.4 |
| 20260505230050 | 17 | 39 | 4.8 | 12.9 | 0.00 | 0.36 | 0.36 | 73 | 1006.9 |
| 20260505225536 | 17 | 23 | 1.6 | 14.5 | 0.00 | 0.36 | 0.36 | 74 | 1006.7 |
| 20260505225036 | 17 | 11 | 6.4 | 14.5 | 0.00 | 0.36 | 0.36 | 74 | 1006.5 |
| 20260505224552 | 17 | 37 | 6.4 | 14.5 | 0.00 | 0.36 | 0.36 | 74 | 1006.6 |
| 20260505224037 | 17 | 59 | 6.4 | 19.3 | 0.00 | 0.36 | 0.36 | 75 | 1006.5 |
| 20260505223537 | 17 | 11 | 6.4 | 19.3 | 0.00 | 0.36 | 0.36 | 75 | 1006.3 |
| 20260505223045 | 17 | 49 | 8.0 | 19.3 | 0.00 | 0.36 | 0.36 | 75 | 1005.9 |
| 20260505222542 | 17 | 46 | 6.4 | 14.5 | 0.00 | 0.36 | 0.36 | 77 | 1005.7 |
| 20260505222038 | 18 | 4 | 6.4 | 14.5 | 0.00 | 0.36 | 0.36 | 77 | 1005.5 |
| 20260505221541 | 18 | 42 | 3.2 | 6.4 | 0.00 | 0.36 | 0.36 | 77 | 1005.5 |
| 20260505221038 | 18 | 49 | 3.2 | 4.8 | 0.00 | 0.36 | 0.36 | 78 | 1005.3 |
| 20260505220537 | 18 | 51 | 1.6 | 4.8 | 0.00 | 0.36 | 0.36 | 79 | 1005.2 |
| 20260505220057 | 17 | 31 | 1.6 | 3.2 | 0.00 | 0.36 | 0.36 | 82 | 1005.1 |
| 20260505215537 | 18 | 82 | 0.0 | 1.6 | 0.00 | 0.36 | 0.36 | 87 | 1005.2 |
| 20260505215037 | 17 | 0 | 0.0 | 1.6 | 0.00 | 0.36 | 0.36 | 84 | 1005.2 |
| 20260505214555 | 17 | 82 | 0.0 | 1.6 | 0.00 | 0.36 | 0.36 | 83 | 1005.1 |
| 20260505214038 | 17 | 82 | 0.0 | 1.6 | 0.00 | 0.36 | 0.36 | 85 | 1005.1 |
| 20260505213538 | 17 | 0 | 0.0 | 4.8 | 0.03 | 0.36 | 0.36 | 82 | 1004.9 |
| 20260505213044 | 17 | 81 | 0.0 | 4.8 | 0.10 | 0.36 | 0.36 | 85 | 1004.9 |
| 20260505212538 | 17 | 58 | 0.0 | 4.8 | 0.18 | 0.36 | 0.36 | 82 | 1004.8 |
| 20260505212038 | 17 | 93 | 1.6 | 6.4 | 0.18 | 0.36 | 0.36 | 84 | 1004.9 |
| 20260505211543 | 17 | 0 | 1.6 | 6.4 | 0.18 | 0.36 | 0.36 | 82 | 1005.0 |
| 20260505211038 | 17 | 47 | 0.0 | 4.8 | 0.18 | 0.36 | 0.36 | 86 | 1005.0 |
| 20260505210537 | 17 | 0 | 0.0 | 8.0 | 0.18 | 0.36 | 0.36 | 89 | 1004.9 |
| 20260505210044 | 17 | 36 | 1.6 | 8.0 | 0.18 | 0.36 | 0.36 | 89 | 1004.9 |
| 20260505205538 | 16 | 47 | 1.6 | 4.8 | 0.23 | 0.36 | 0.36 | 89 | 1004.7 |
| 20260505205038 | 16 | 79 | 0.0 | 3.2 | 0.25 | 0.36 | 0.36 | 90 | 1004.8 |
| 20260505204549 | 16 | 81 | 1.6 | 6.4 | 0.25 | 0.36 | 0.36 | 87 | 1004.9 |
| 20260505204037 | 16 | 83 | 1.6 | 19.3 | 0.25 | 0.36 | 0.36 | 84 | 1005.1 |
| 20260505203537 | 16 | 101 | 3.2 | 19.3 | 0.23 | 0.33 | 0.33 | 79 | 1005.5 |
| 20260505203106 | 17 | 290 | 8.0 | 19.3 | 0.15 | 0.25 | 0.25 | 79 | 1005.4 |
| 20260505202537 | 18 | 0 | 0.0 | 1.6 | 0.08 | 0.18 | 0.18 | 85 | 1004.8 |
| 20260505202037 | 18 | 105 | 0.0 | 1.6 | 0.13 | 0.18 | 0.18 | 87 | 1004.6 |
| 20260505201546 | 18 | 0 | 0.0 | 1.6 | 0.18 | 0.18 | 0.18 | 87 | 1004.7 |
| 20260505201038 | 18 | 0 | 0.0 | 3.2 | 0.18 | 0.18 | 0.18 | 88 | 1004.8 |
| 20260505200538 | 18 | 0 | 0.0 | 3.2 | 0.18 | 0.18 | 0.18 | 88 | 1004.8 |
| 20260505200049 | 17 | 104 | 0.0 | 1.6 | 0.18 | 0.18 | 0.18 | 85 | 1004.7 |
| 20260505195539 | 17 | 113 | 0.0 | 1.6 | 0.10 | 0.10 | 0.10 | 83 | 1004.9 |
| 20260505195037 | 18 | 0 | 0.0 | 4.8 | 0.10 | 0.10 | 0.10 | 81 | 1005.0 |
| 20260505194548 | 18 | 113 | 0.0 | 8.0 | 0.10 | 0.10 | 0.10 | 79 | 1005.0 |
| 20260505194036 | 18 | 155 | 1.6 | 12.9 | 0.10 | 0.10 | 0.10 | 76 | 1005.1 |
| 20260505193536 | 18 | 160 | 4.8 | 14.5 | 0.10 | 0.10 | 0.10 | 72 | 1004.9 |
| 20260505193052 | 19 | 231 | 6.4 | 14.5 | 0.10 | 0.10 | 0.10 | 71 | 1005.0 |
| 20260505192536 | 20 | 113 | 3.2 | 11.3 | 0.10 | 0.10 | 0.10 | 71 | 1004.9 |
| 20260505192040 | 21 | 111 | 6.4 | 11.3 | 0.05 | 0.05 | 0.05 | 64 | 1004.9 |
| 20260505191554 | 21 | 227 | 6.4 | 11.3 | 0.00 | 0.00 | 0.00 | 61 | 1004.7 |
| 20260505191035 | 20 | 244 | 4.8 | 9.7 | 0.00 | 0.00 | 0.00 | 62 | 1004.8 |
| 20260505190537 | 20 | 212 | 4.8 | 9.7 | 0.00 | 0.00 | 0.00 | 63 | 1004.9 |
| 20260505190045 | 20 | 257 | 1.6 | 4.8 | 0.00 | 0.00 | 0.00 | 66 | 1005.0 |
| 20260505185536 | 20 | 186 | 0.0 | 1.6 | 0.00 | 0.00 | 0.00 | 69 | 1005.2 |
| 20260505185036 | 20 | 0 | 0.0 | 6.4 | 0.00 | 0.00 | 0.00 | 69 | 1005.3 |
| 20260505184542 | 20 | 190 | 0.0 | 6.4 | 0.00 | 0.00 | 0.00 | 68 | 1005.3 |
| 20260505184036 | 20 | 154 | 1.6 | 6.4 | 0.00 | 0.00 | 0.00 | 68 | 1005.3 |
| 20260505183537 | 20 | 213 | 3.2 | 6.4 | 0.00 | 0.00 | 0.00 | 68 | 1005.2 |
| 20260505183043 | 19 | 243 | 3.2 | 6.4 | 0.00 | 0.00 | 0.00 | 70 | 1005.1 |
| 20260505182535 | 18 | 184 | 3.2 | 6.4 | 0.00 | 0.00 | 0.00 | 72 | 1005.0 |
| 20260505182035 | 18 | 211 | 3.2 | 6.4 | 0.00 | 0.00 | 0.00 | 73 | 1004.8 |
| 20260505181545 | 17 | 221 | 3.2 | 6.4 | 0.00 | 0.00 | 0.00 | 77 | 1004.9 |
| 20260505181037 | 17 | 254 | 1.6 | 4.8 | 0.00 | 0.00 | 0.00 | 76 | 1005.0 |
| 20260505180535 | 17 | 236 | 1.6 | 4.8 | 0.00 | 0.00 | 0.00 | 77 | 1004.9 |
| 20260505180039 | 16 | 131 | 0.0 | 17.7 | 0.00 | 0.00 | 0.00 | 77 | 1004.7 |
| 20260505175535 | 17 | 316 | 3.2 | 17.7 | 0.00 | 0.00 | 0.00 | 75 | 1005.3 |
| 20260505175032 | 17 | 325 | 8.0 | 30.6 | 0.00 | 0.00 | 0.00 | 72 | 1005.5 |
| 20260505174546 | 18 | 213 | 9.7 | 30.6 | 0.00 | 0.00 | 0.00 | 65 | 1005.9 |
| 20260505174034 | 20 | 257 | 11.3 | 30.6 | 0.00 | 0.00 | 0.00 | 53 | 1005.5 |
| 20260505173532 | 21 | 221 | 11.3 | 25.7 | 0.00 | 0.00 | 0.00 | 51 | 1004.8 |
| 20260505173041 | 21 | 188 | 14.5 | 25.7 | 0.00 | 0.00 | 0.00 | 50 | 1004.4 |
| 20260505172535 | 21 | 238 | 12.9 | 24.1 | 0.00 | 0.00 | 0.00 | 49 | 1004.4 |
| 20260505172035 | 21 | 173 | 11.3 | 24.1 | 0.00 | 0.00 | 0.00 | 49 | 1004.3 |
| 20260505171551 | 22 | 209 | 11.3 | 27.4 | 0.00 | 0.00 | 0.00 | 50 | 1004.5 |
| 20260505171036 | 21 | 133 | 9.7 | 27.4 | 0.00 | 0.00 | 0.00 | 50 | 1004.4 |
| 20260505170535 | 21 | 208 | 9.7 | 25.7 | 0.00 | 0.00 | 0.00 | 50 | 1004.5 |
| 20260505170105 | 21 | 224 | 12.9 | 25.7 | 0.00 | 0.00 | 0.00 | 50 | 1004.7 |
| 20260505165535 | 21 | 197 | 11.3 | 27.4 | 0.00 | 0.00 | 0.00 | 50 | 1004.8 |
| 20260505165032 | 21 | 222 | 9.7 | 27.4 | 0.00 | 0.00 | 0.00 | 51 | 1004.7 |
| 20260505164547 | 21 | 226 | 11.3 | 27.4 | 0.00 | 0.00 | 0.00 | 50 | 1004.7 |
| 20260505164035 | 21 | 207 | 9.7 | 24.1 | 0.00 | 0.00 | 0.00 | 49 | 1004.7 |
| 20260505163535 | 21 | 240 | 12.9 | 24.1 | 0.00 | 0.00 | 0.00 | 49 | 1004.7 |
| 20260505163044 | 21 | 170 | 11.3 | 20.9 | 0.00 | 0.00 | 0.00 | 49 | 1004.8 |
| 20260505162538 | 22 | 196 | 9.7 | 20.9 | 0.00 | 0.00 | 0.00 | 49 | 1004.8 |
| 20260505162037 | 22 | 183 | 11.3 | 25.7 | 0.00 | 0.00 | 0.00 | 49 | 1004.6 |
| 20260505161556 | 22 | 220 | 9.7 | 25.7 | 0.00 | 0.00 | 0.00 | 49 | 1004.3 |
| 20260505161037 | 21 | 232 | 12.9 | 25.7 | 0.00 | 0.00 | 0.00 | 49 | 1004.0 |
| 20260505160537 | 21 | 184 | 9.7 | 25.7 | 0.00 | 0.00 | 0.00 | 49 | 1004.0 |
| 20260505153043 | 21 | 243 | 9.7 | 22.5 | 0.00 | 0.00 | 0.00 | 53 | 1004.6 |
| 20260505152537 | 21 | 189 | 9.7 | 24.1 | 0.00 | 0.00 | 0.00 | 53 | 1004.5 |
| 20260505152036 | 21 | 219 | 9.7 | 24.1 | 0.00 | 0.00 | 0.00 | 53 | 1004.6 |
| 20260505151601 | 21 | 241 | 11.3 | 24.1 | 0.00 | 0.00 | 0.00 | 53 | 1004.6 |
| 20260505151037 | 21 | 154 | 11.3 | 30.6 | 0.00 | 0.00 | 0.00 | 53 | 1004.8 |
| 20260505150539 | 21 | 221 | 9.7 | 30.6 | 0.00 | 0.00 | 0.00 | 52 | 1004.8 |
| 20260505140537 | 21 | 200 | 11.3 | 27.4 | 0.00 | 0.00 | 0.00 | 55 | 1004.0 |
| 20260505125037 | 19 | 224 | 9.7 | 24.1 | 0.00 | 0.00 | 0.00 | 60 | 1004.2 |
| 20260505124541 | 19 | 229 | 12.9 | 24.1 | 0.00 | 0.00 | 0.00 | 60 | 1004.0 |
| 20260505124038 | 19 | 188 | 11.3 | 24.1 | 0.00 | 0.00 | 0.00 | 61 | 1004.0 |
| 20260505123538 | 18 | 207 | 11.3 | 24.1 | 0.00 | 0.00 | 0.00 | 60 | 1004.2 |
| 20260505123040 | 18 | 208 | 9.7 | 24.1 | 0.00 | 0.00 | 0.00 | 61 | 1004.1 |
| 20260505122541 | 18 | 174 | 9.7 | 24.1 | 0.00 | 0.00 | 0.00 | 61 | 1004.4 |
| 20260505122037 | 18 | 142 | 9.7 | 22.5 | 0.00 | 0.00 | 0.00 | 62 | 1004.3 |
| 20260505121558 | 18 | 169 | 8.0 | 22.5 | 0.00 | 0.00 | 0.00 | 62 | 1004.4 |
| 20260505121037 | 18 | 228 | 9.7 | 29.0 | 0.00 | 0.00 | 0.00 | 62 | 1004.5 |
| 20260505120537 | 18 | 166 | 9.7 | 29.0 | 0.00 | 0.00 | 0.00 | 62 | 1004.5 |
| 20260505120044 | 18 | 195 | 9.7 | 29.0 | 0.00 | 0.00 | 0.00 | 62 | 1004.4 |
| 20260505115540 | 18 | 176 | 11.3 | 29.0 | 0.00 | 0.00 | 0.00 | 62 | 1004.4 |
| 20260505115037 | 17 | 229 | 12.9 | 22.5 | 0.00 | 0.00 | 0.00 | 64 | 1004.3 |
| 20260505114541 | 17 | 184 | 11.3 | 30.6 | 0.00 | 0.00 | 0.00 | 65 | 1004.3 |
| 20260505114038 | 17 | 167 | 8.0 | 30.6 | 0.00 | 0.00 | 0.00 | 66 | 1004.3 |
| 20260505113537 | 17 | 175 | 8.0 | 27.4 | 0.00 | 0.00 | 0.00 | 67 | 1004.3 |
| 20260505113041 | 16 | 223 | 9.7 | 27.4 | 0.00 | 0.00 | 0.00 | 67 | 1004.3 |
| 20260505112538 | 16 | 186 | 8.0 | 19.3 | 0.00 | 0.00 | 0.00 | 68 | 1004.4 |
| 20260505112037 | 16 | 205 | 9.7 | 22.5 | 0.00 | 0.00 | 0.00 | 69 | 1004.5 |
| 20260505111545 | 16 | 190 | 9.7 | 22.5 | 0.00 | 0.00 | 0.00 | 69 | 1004.4 |
| 20260505111037 | 16 | 121 | 9.7 | 22.5 | 0.00 | 0.00 | 0.00 | 69 | 1004.4 |
| 20260505110536 | 16 | 161 | 11.3 | 22.5 | 0.00 | 0.00 | 0.00 | 69 | 1004.5 |
| 20260505102037 | 16 | 200 | 6.4 | 22.5 | 0.00 | 0.00 | 0.00 | 68 | 1003.6 |
| 20260505101553 | 16 | 150 | 8.0 | 22.5 | 0.00 | 0.00 | 0.00 | 67 | 1003.6 |
| 20260505101037 | 16 | 160 | 6.4 | 22.5 | 0.00 | 0.00 | 0.00 | 66 | 1003.6 |
| 20260505100538 | 16 | 142 | 11.3 | 22.5 | 0.00 | 0.00 | 0.00 | 66 | 1003.6 |
| 20260505100043 | 16 | 221 | 8.0 | 17.7 | 0.00 | 0.00 | 0.00 | 67 | 1003.6 |
| 20260505095537 | 16 | 209 | 8.0 | 20.9 | 0.00 | 0.00 | 0.00 | 67 | 1003.6 |
| 20260505095036 | 16 | 242 | 4.8 | 20.9 | 0.00 | 0.00 | 0.00 | 66 | 1003.5 |
| 20260505094541 | 17 | 152 | 6.4 | 22.5 | 0.00 | 0.00 | 0.00 | 66 | 1003.5 |
| 20260505094036 | 17 | 191 | 8.0 | 32.2 | 0.00 | 0.00 | 0.00 | 65 | 1003.5 |
| 20260505093536 | 17 | 172 | 16.1 | 32.2 | 0.00 | 0.00 | 0.00 | 63 | 1003.4 |
| 20260505093043 | 17 | 221 | 11.3 | 24.1 | 0.00 | 0.00 | 0.00 | 62 | 1003.4 |
| 20260505092537 | 17 | 226 | 12.9 | 22.5 | 0.00 | 0.00 | 0.00 | 61 | 1003.7 |
| 20260505092037 | 17 | 195 | 9.7 | 22.5 | 0.00 | 0.00 | 0.00 | 61 | 1003.6 |
| 20260505091544 | 17 | 235 | 9.7 | 22.5 | 0.00 | 0.00 | 0.00 | 62 | 1003.6 |
| 20260505091037 | 17 | 229 | 9.7 | 22.5 | 0.00 | 0.00 | 0.00 | 62 | 1003.5 |
| 20260505090536 | 17 | 189 | 6.4 | 20.9 | 0.00 | 0.00 | 0.00 | 63 | 1003.6 |
| 20260505090055 | 17 | 163 | 9.7 | 19.3 | 0.00 | 0.00 | 0.00 | 62 | 1003.6 |
| 20260505085538 | 17 | 221 | 8.0 | 19.3 | 0.00 | 0.00 | 0.00 | 62 | 1003.6 |
| 20260505085036 | 17 | 184 | 4.8 | 14.5 | 0.00 | 0.00 | 0.00 | 62 | 1003.5 |
| 20260505084548 | 17 | 167 | 4.8 | 14.5 | 0.00 | 0.00 | 0.00 | 62 | 1003.6 |
| 20260505084038 | 17 | 187 | 4.8 | 17.7 | 0.00 | 0.00 | 0.00 | 62 | 1003.6 |
| 20260505083537 | 17 | 219 | 6.4 | 17.7 | 0.00 | 0.00 | 0.00 | 62 | 1003.6 |
| 20260505083045 | 17 | 163 | 4.8 | 19.3 | 0.00 | 0.00 | 0.00 | 62 | 1003.5 |
| 20260505082537 | 17 | 236 | 4.8 | 19.3 | 0.00 | 0.00 | 0.00 | 62 | 1003.5 |
| 20260505082037 | 17 | 184 | 6.4 | 17.7 | 0.00 | 0.00 | 0.00 | 62 | 1003.5 |
| 20260505081545 | 17 | 169 | 6.4 | 17.7 | 0.00 | 0.00 | 0.00 | 62 | 1003.5 |
| 20260505081037 | 17 | 200 | 4.8 | 17.7 | 0.00 | 0.00 | 0.00 | 62 | 1003.5 |
| 20260505080536 | 17 | 174 | 4.8 | 14.5 | 0.00 | 0.00 | 0.00 | 62 | 1003.5 |
| 20260505080043 | 17 | 177 | 4.8 | 14.5 | 0.00 | 0.00 | 0.00 | 63 | 1003.5 |
| 20260505075539 | 16 | 151 | 3.2 | 14.5 | 0.00 | 0.00 | 0.00 | 63 | 1003.5 |
| 20260505075036 | 16 | 224 | 1.6 | 8.0 | 0.00 | 0.00 | 0.00 | 63 | 1003.6 |
| 20260505074541 | 16 | 193 | 1.6 | 8.0 | 0.00 | 0.00 | 0.00 | 63 | 1003.7 |
| 20260505074036 | 16 | 182 | 3.2 | 6.4 | 0.00 | 0.00 | 0.00 | 63 | 1003.8 |
| 20260505073537 | 16 | 186 | 1.6 | 8.0 | 0.00 | 0.00 | 0.00 | 63 | 1003.7 |
| 20260505073041 | 16 | 243 | 0.0 | 8.0 | 0.00 | 0.00 | 0.00 | 63 | 1003.8 |
| 20260505072536 | 17 | 111 | 3.2 | 9.7 | 0.00 | 0.00 | 0.00 | 63 | 1004.0 |
| 20260505072036 | 17 | 212 | 1.6 | 9.7 | 0.00 | 0.00 | 0.00 | 62 | 1004.0 |
| 20260505071545 | 17 | 160 | 3.2 | 11.3 | 0.00 | 0.00 | 0.00 | 62 | 1004.0 |
| 20260505071036 | 17 | 214 | 4.8 | 11.3 | 0.00 | 0.00 | 0.00 | 62 | 1004.2 |
| 20260505070538 | 17 | 167 | 4.8 | 12.9 | 0.00 | 0.00 | 0.00 | 61 | 1004.2 |
| 20260505070046 | 17 | 165 | 6.4 | 12.9 | 0.00 | 0.00 | 0.00 | 61 | 1004.4 |
| 20260505065536 | 17 | 197 | 4.8 | 12.9 | 0.00 | 0.00 | 0.00 | 61 | 1004.2 |
| 20260505065036 | 17 | 172 | 4.8 | 12.9 | 0.00 | 0.00 | 0.00 | 62 | 1004.2 |
| 20260505064543 | 17 | 150 | 4.8 | 14.5 | 0.00 | 0.00 | 0.00 | 62 | 1004.0 |
| 20260505064036 | 17 | 109 | 6.4 | 17.7 | 0.00 | 0.00 | 0.00 | 62 | 1004.0 |
| 20260505063536 | 16 | 205 | 6.4 | 17.7 | 0.00 | 0.00 | 0.00 | 63 | 1004.1 |
| 20260505063052 | 16 | 210 | 4.8 | 12.9 | 0.00 | 0.00 | 0.00 | 63 | 1004.0 |
| 20260505062536 | 16 | 199 | 4.8 | 12.9 | 0.00 | 0.00 | 0.00 | 64 | 1004.0 |
| 20260505062037 | 16 | 183 | 4.8 | 12.9 | 0.00 | 0.00 | 0.00 | 64 | 1004.0 |
| 20260505061552 | 16 | 98 | 3.2 | 11.3 | 0.00 | 0.00 | 0.00 | 65 | 1004.0 |
| 20260505061037 | 15 | 193 | 4.8 | 11.3 | 0.00 | 0.00 | 0.00 | 66 | 1004.1 |
| 20260505060537 | 15 | 145 | 3.2 | 11.3 | 0.00 | 0.00 | 0.00 | 67 | 1004.1 |
| 20260505060046 | 15 | 122 | 3.2 | 11.3 | 0.00 | 0.00 | 0.00 | 67 | 1004.0 |